createdAt,value
2022-12-11T00:00:28.973Z,20.35
2022-12-11T00:02:56.783Z,23.77
2022-12-11T00:05:24.197Z,21.38
2022-12-11T00:07:51.317Z,21.13
2022-12-11T00:10:18.534Z,22.88
2022-12-11T00:12:46.341Z,20.38
2022-12-11T00:15:14.068Z,22.42
2022-12-11T00:17:41.116Z,20.45
2022-12-11T00:20:09.195Z,20.08
2022-12-11T00:22:37.551Z,21.23
2022-12-11T00:25:06.877Z,24.40
2022-12-11T00:27:34.436Z,20.63
2022-12-11T00:30:01.345Z,20.20
2022-12-11T00:32:28.815Z,23.23
2022-12-11T00:34:59.556Z,24.17
2022-12-11T00:37:29.429Z,26.52
2022-12-11T00:39:56.810Z,22.20
2022-12-11T00:42:23.897Z,20.48
2022-12-11T00:44:51.000Z,23.88
2022-12-11T00:47:18.018Z,19.33
2022-12-11T00:49:50.037Z,20.17
2022-12-11T00:52:18.128Z,22.60
2022-12-11T00:54:45.514Z,23.23
2022-12-11T00:57:12.496Z,21.10
2022-12-11T00:59:39.749Z,19.65
2022-12-11T01:02:06.764Z,20.33
2022-12-11T01:04:36.212Z,21.27
2022-12-11T01:07:03.401Z,20.30
2022-12-11T01:09:48.825Z,21.85
2022-12-11T01:12:17.566Z,16.52
2022-12-11T01:14:44.512Z,22.13
2022-12-11T01:17:12.791Z,19.13
2022-12-11T01:19:40.069Z,17.08
2022-12-11T01:22:07.092Z,22.77
2022-12-11T01:24:34.720Z,18.63
2022-12-11T01:27:02.511Z,17.85
2022-12-11T01:29:29.578Z,19.63
2022-12-11T01:31:56.480Z,19.67
2022-12-11T01:34:23.566Z,18.40
2022-12-11T01:36:52.844Z,19.90
2022-12-11T01:39:20.455Z,18.77
2022-12-11T01:41:47.632Z,19.58
2022-12-11T01:44:15.322Z,20.13
2022-12-11T01:46:43.117Z,22.60
2022-12-11T01:49:14.005Z,20.08
2022-12-11T01:51:49.089Z,22.38
2022-12-11T01:54:20.306Z,23.52
2022-12-11T01:56:50.066Z,20.48
2022-12-11T01:59:21.188Z,22.67
2022-12-11T02:02:11.919Z,24.42
2022-12-11T02:04:41.969Z,21.45
2022-12-11T02:07:10.344Z,21.23
2022-12-11T02:09:40.831Z,19.38
2022-12-11T02:12:15.398Z,18.65
2022-12-11T02:15:11.351Z,19.90
2022-12-11T02:17:41.870Z,19.63
2022-12-11T02:20:11.817Z,19.77
2022-12-11T02:22:54.216Z,19.08
2022-12-11T02:25:53.619Z,19.35
2022-12-11T02:28:45.962Z,18.13
2022-12-11T02:31:19.020Z,17.95
2022-12-11T02:34:10.127Z,20.23
2022-12-11T02:36:41.750Z,21.20
2022-12-11T02:39:12.892Z,18.63
2022-12-11T02:41:44.277Z,19.98
2022-12-11T02:44:14.007Z,18.95
2022-12-11T02:46:42.967Z,18.92
2022-12-11T02:49:11.968Z,20.38
2022-12-11T02:51:41.524Z,18.90
2022-12-11T02:54:13.947Z,19.10
2022-12-11T02:57:24.767Z,21.55
2022-12-11T02:59:51.804Z,20.67
2022-12-11T03:02:19.118Z,20.30
2022-12-11T03:04:48.854Z,22.08
2022-12-11T03:07:23.430Z,22.85
2022-12-11T03:09:52.863Z,19.63
2022-12-11T03:12:32.700Z,22.20
2022-12-11T03:15:03.021Z,22.38
2022-12-11T03:17:39.307Z,22.42
2022-12-11T03:20:16.654Z,20.92
2022-12-11T03:22:46.165Z,19.98
2022-12-11T03:25:20.638Z,19.88
2022-12-11T03:28:24.405Z,22.85
2022-12-11T03:30:53.968Z,22.17
2022-12-11T03:33:31.344Z,19.67
2022-12-11T03:36:05.326Z,20.52
2022-12-11T03:38:37.961Z,23.60
2022-12-11T03:41:10.452Z,22.17
2022-12-11T03:43:57.060Z,24.60
2022-12-11T03:46:31.997Z,23.13
2022-12-11T03:49:15.668Z,19.45
2022-12-11T03:51:45.499Z,21.42
2022-12-11T03:54:13.083Z,21.73
2022-12-11T03:56:43.194Z,21.88
2022-12-11T03:59:10.517Z,23.45
2022-12-11T04:01:38.459Z,21.40
2022-12-11T04:04:06.050Z,22.70
2022-12-11T04:06:33.046Z,19.73
2022-12-11T04:09:00.081Z,21.67
2022-12-11T04:11:36.113Z,21.80
2022-12-11T04:14:24.500Z,21.10
2022-12-11T04:16:51.604Z,22.42
2022-12-11T04:19:37.597Z,21.05
2022-12-11T04:22:23.372Z,20.55
2022-12-11T04:24:50.589Z,17.55
2022-12-11T04:30:37.583Z,18.95
2022-12-11T04:33:04.994Z,19.30
2022-12-11T04:35:32.515Z,21.10
2022-12-11T04:37:59.601Z,19.77
2022-12-11T04:40:26.657Z,18.45
2022-12-11T04:43:01.641Z,21.58
2022-12-11T04:48:19.770Z,20.98
2022-12-11T04:51:11.859Z,20.58
2022-12-11T04:53:43.609Z,18.13
2022-12-11T04:56:13.833Z,18.70
2022-12-11T04:58:42.490Z,20.63
2022-12-11T05:01:21.078Z,20.52
2022-12-11T05:03:50.911Z,20.40
2022-12-11T05:06:31.547Z,19.88
2022-12-11T05:08:59.639Z,20.88
2022-12-11T05:11:28.557Z,20.27
2022-12-11T05:13:55.624Z,24.27
2022-12-11T05:16:23.129Z,21.48
2022-12-11T05:18:50.000Z,19.60
2022-12-11T05:21:40.413Z,20.92
2022-12-11T05:24:07.739Z,21.27
2022-12-11T05:26:34.763Z,21.50
2022-12-11T05:29:02.583Z,21.77
2022-12-11T05:31:30.804Z,22.17
2022-12-11T05:33:59.594Z,20.40
2022-12-11T05:36:29.729Z,20.63
2022-12-11T05:38:59.143Z,18.67
2022-12-11T05:41:28.888Z,20.92
2022-12-11T05:43:56.004Z,20.42
2022-12-11T05:46:25.615Z,19.50
2022-12-11T05:48:56.421Z,20.63
2022-12-11T05:51:24.136Z,18.10
2022-12-11T05:53:54.293Z,20.02
2022-12-11T05:56:24.332Z,19.02
2022-12-11T05:58:51.490Z,18.90
2022-12-11T06:01:42.641Z,20.38
2022-12-11T06:04:11.756Z,22.05
2022-12-11T06:06:40.734Z,21.42
2022-12-11T06:09:07.770Z,21.90
2022-12-11T06:11:35.813Z,19.55
2022-12-11T06:14:03.257Z,17.80
2022-12-11T06:16:30.598Z,19.58
2022-12-11T06:18:58.521Z,18.42
2022-12-11T06:21:30.801Z,20.35
2022-12-11T06:24:01.051Z,17.60
2022-12-11T06:26:29.546Z,18.15
2022-12-11T06:28:57.923Z,17.05
2022-12-11T06:31:25.827Z,15.55
2022-12-11T06:33:55.052Z,17.58
2022-12-11T06:36:23.909Z,16.40
2022-12-11T06:38:51.645Z,16.92
2022-12-11T06:41:21.143Z,15.32
2022-12-11T06:43:48.380Z,15.57
2022-12-11T06:46:18.284Z,15.32
2022-12-11T06:48:47.032Z,15.82
2022-12-11T06:51:16.630Z,17.67
2022-12-11T06:53:44.221Z,18.05
2022-12-11T06:56:15.729Z,16.75
2022-12-11T06:58:44.306Z,15.45
2022-12-11T07:01:30.106Z,14.80
2022-12-11T07:03:59.341Z,15.90
2022-12-11T07:06:28.474Z,17.85
2022-12-11T07:08:56.107Z,16.15
2022-12-11T07:11:23.430Z,15.98
2022-12-11T07:13:50.880Z,15.27
2022-12-11T07:16:18.816Z,14.57
2022-12-11T07:18:51.524Z,14.27
2022-12-11T07:21:20.310Z,15.40
2022-12-11T07:23:48.040Z,12.77
2022-12-11T07:26:17.425Z,14.63
2022-12-11T07:28:44.660Z,15.00
2022-12-11T07:31:17.717Z,14.13
2022-12-11T07:33:45.110Z,14.35
2022-12-11T07:36:14.018Z,15.23
2022-12-11T07:38:42.716Z,16.20
2022-12-11T07:41:12.675Z,13.85
2022-12-11T07:43:39.928Z,16.17
2022-12-11T07:46:13.806Z,15.23
2022-12-11T07:48:42.549Z,15.32
2022-12-11T07:51:12.434Z,16.08
2022-12-11T07:53:39.571Z,13.23
2022-12-11T07:56:07.241Z,13.57
2022-12-11T07:58:36.851Z,13.73
2022-12-11T08:01:05.012Z,12.80
2022-12-11T08:03:32.247Z,15.10
2022-12-11T08:05:59.159Z,13.73
2022-12-11T08:08:26.175Z,13.90
2022-12-11T08:10:53.541Z,14.18
2022-12-11T08:13:20.699Z,13.10
2022-12-11T08:15:47.701Z,10.95
2022-12-11T08:18:14.724Z,13.90
2022-12-11T08:20:41.657Z,14.05
2022-12-11T08:23:08.624Z,14.63
2022-12-11T08:25:36.310Z,13.82
2022-12-11T08:28:05.023Z,15.20
2022-12-11T08:30:32.085Z,14.27
2022-12-11T08:32:59.894Z,13.27
2022-12-11T08:35:27.353Z,15.00
2022-12-11T08:37:54.278Z,12.93
2022-12-11T08:40:21.399Z,13.30
2022-12-11T08:42:49.006Z,12.15
2022-12-11T08:45:16.615Z,14.30
2022-12-11T08:47:44.915Z,14.90
2022-12-11T08:50:13.928Z,16.67
2022-12-11T08:52:40.867Z,17.05
2022-12-11T08:55:08.559Z,14.85
2022-12-11T08:57:35.781Z,13.82
2022-12-11T09:00:02.746Z,13.30
2022-12-11T09:02:30.365Z,16.52
2022-12-11T09:04:57.423Z,15.45
2022-12-11T09:07:25.347Z,13.68
2022-12-11T09:09:55.227Z,13.95
2022-12-11T09:12:22.278Z,13.48
2022-12-11T09:14:49.345Z,14.20
2022-12-11T09:17:17.710Z,14.00
2022-12-11T09:19:44.942Z,16.88
2022-12-11T09:22:12.814Z,15.07
2022-12-11T09:24:40.081Z,15.85
2022-12-11T09:27:09.783Z,17.55
2022-12-11T09:29:38.960Z,13.95
2022-12-11T09:32:06.241Z,15.52
2022-12-11T09:34:33.442Z,16.38
2022-12-11T09:37:00.522Z,14.73
2022-12-11T09:39:27.590Z,13.98
2022-12-11T09:42:03.749Z,16.30
2022-12-11T09:47:02.417Z,14.02
2022-12-11T09:49:43.526Z,16.88
2022-12-11T09:52:42.644Z,17.27
2022-12-11T09:55:24.575Z,15.82
2022-12-11T09:58:02.781Z,18.55
2022-12-11T10:00:37.694Z,15.77
2022-12-11T10:03:50.417Z,15.45
2022-12-11T10:06:20.587Z,14.23
2022-12-11T10:08:59.420Z,20.73
2022-12-11T10:11:56.314Z,17.17
2022-12-11T10:14:38.838Z,17.70
2022-12-11T10:17:32.974Z,16.20
2022-12-11T10:20:33.696Z,17.27
2022-12-11T10:23:03.572Z,20.15
2022-12-11T10:25:34.344Z,15.57
2022-12-11T10:28:14.155Z,16.02
2022-12-11T10:30:56.690Z,14.43
2022-12-11T10:33:50.543Z,17.38
2022-12-11T10:36:25.838Z,18.75
2022-12-11T10:38:53.672Z,15.10
2022-12-11T10:41:24.865Z,16.95
2022-12-11T10:43:53.730Z,16.70
2022-12-11T10:46:28.964Z,18.40
2022-12-11T10:48:58.885Z,21.65
2022-12-11T10:51:33.506Z,19.00
2022-12-11T10:54:29.308Z,17.25
2022-12-11T10:56:58.072Z,21.02
2022-12-11T10:59:41.628Z,17.48
2022-12-11T11:02:26.972Z,17.85
2022-12-11T11:04:57.447Z,18.75
2022-12-11T11:07:30.208Z,18.98
2022-12-11T11:10:27.511Z,17.95
2022-12-11T11:13:02.483Z,22.92
2022-12-11T11:15:32.747Z,19.23
2022-12-11T11:18:12.770Z,19.20
2022-12-11T11:20:47.955Z,16.13
2022-12-11T11:23:17.007Z,21.00
2022-12-11T11:26:01.796Z,20.65
2022-12-11T11:28:35.294Z,18.08
2022-12-11T11:31:18.738Z,18.52
2022-12-11T11:33:56.085Z,22.52
2022-12-11T11:36:29.310Z,15.80
2022-12-11T11:39:18.245Z,16.70
2022-12-11T11:42:12.672Z,17.65
2022-12-11T11:44:58.448Z,19.05
2022-12-11T11:47:41.274Z,19.33
2022-12-11T11:50:33.736Z,18.33
2022-12-11T11:53:13.913Z,18.98
2022-12-11T11:55:58.938Z,21.23
2022-12-11T11:58:43.693Z,20.33
2022-12-11T12:01:16.386Z,18.20
2022-12-11T12:03:44.785Z,18.83
2022-12-11T12:06:23.148Z,17.52
2022-12-11T12:09:06.720Z,18.83
2022-12-11T12:11:49.655Z,19.95
2022-12-11T12:18:04.176Z,20.98
2022-12-11T12:20:34.315Z,19.92
2022-12-11T12:23:07.858Z,21.92
2022-12-11T12:25:39.329Z,28.15
2022-12-11T12:28:39.250Z,29.02
2022-12-11T12:31:17.241Z,24.48
2022-12-11T12:33:50.954Z,33.63
2022-12-11T12:36:21.241Z,34.45
2022-12-11T12:38:55.270Z,36.38
2022-12-11T12:41:49.492Z,62.95
2022-12-11T12:44:22.620Z,45.88
2022-12-11T12:47:08.838Z,43.80
2022-12-11T12:49:35.943Z,48.17
2022-12-11T12:52:05.095Z,32.60
2022-12-11T12:54:34.641Z,24.52
2022-12-11T12:57:04.166Z,25.90
2022-12-11T12:59:31.417Z,23.55
2022-12-11T13:02:04.219Z,22.15
2022-12-11T13:04:58.641Z,20.52
2022-12-11T13:07:30.511Z,18.35
2022-12-11T13:10:26.226Z,20.52
2022-12-11T13:12:54.292Z,17.05
2022-12-11T13:15:45.352Z,17.95
2022-12-11T13:18:37.521Z,19.38
2022-12-11T13:21:32.863Z,14.75
2022-12-11T13:24:15.117Z,15.13
2022-12-11T13:26:42.986Z,17.02
2022-12-11T13:29:33.737Z,17.65
2022-12-11T13:32:24.634Z,17.75
2022-12-11T13:34:56.450Z,16.48
2022-12-11T13:37:34.366Z,15.60
2022-12-11T13:40:05.971Z,17.30
2022-12-11T13:42:43.502Z,19.20
2022-12-11T13:45:23.759Z,19.80
2022-12-11T13:47:50.938Z,18.13
2022-12-11T13:50:36.505Z,21.77
2022-12-11T13:53:05.002Z,21.57
2022-12-11T13:55:34.746Z,20.17
2022-12-11T13:58:02.158Z,21.52
2022-12-11T14:00:32.738Z,18.35
2022-12-11T14:03:05.045Z,20.75
2022-12-11T14:05:33.768Z,21.50
2022-12-11T14:08:09.288Z,21.80
2022-12-11T14:10:37.338Z,19.95
2022-12-11T14:13:25.320Z,20.58
2022-12-11T14:15:53.204Z,21.15
2022-12-11T14:18:27.435Z,18.77
2022-12-11T14:21:03.386Z,19.17
2022-12-11T14:26:02.289Z,23.13
2022-12-11T14:28:36.961Z,19.95
2022-12-11T14:31:05.862Z,22.20
2022-12-11T14:33:38.175Z,22.02
2022-12-11T14:36:06.292Z,18.17
2022-12-11T14:38:42.527Z,17.23
2022-12-11T14:41:37.361Z,18.02
2022-12-11T14:44:07.517Z,22.10
2022-12-11T14:46:46.418Z,18.30
2022-12-11T14:49:34.463Z,17.75
2022-12-11T14:52:02.908Z,18.92
2022-12-11T14:54:38.668Z,17.50
2022-12-11T14:57:07.350Z,17.05
2022-12-11T14:59:46.008Z,16.33
2022-12-11T15:02:25.121Z,17.58
2022-12-11T15:05:18.284Z,15.10
2022-12-11T15:08:02.533Z,16.50
2022-12-11T15:10:58.680Z,15.18
2022-12-11T15:13:26.127Z,14.90
2022-12-11T15:15:56.018Z,18.23
2022-12-11T15:18:23.696Z,15.13
2022-12-11T15:20:57.743Z,15.52
2022-12-11T15:23:24.942Z,16.38
2022-12-11T15:25:58.765Z,15.88
2022-12-11T15:28:26.816Z,17.20
2022-12-11T15:31:08.896Z,14.88
2022-12-11T15:33:47.789Z,16.88
2022-12-11T15:36:47.388Z,16.88
2022-12-11T15:39:14.383Z,20.23
2022-12-11T15:41:42.931Z,19.45
2022-12-11T15:44:20.055Z,18.38
2022-12-11T15:46:47.107Z,17.80
2022-12-11T15:49:14.566Z,16.80
2022-12-11T15:51:43.369Z,17.42
2022-12-11T15:54:10.536Z,16.13
2022-12-11T15:56:37.534Z,15.93
2022-12-11T15:59:06.853Z,18.80
2022-12-11T16:01:34.272Z,17.83
2022-12-11T16:04:04.871Z,18.85
2022-12-11T16:06:33.283Z,16.13
2022-12-11T16:09:00.336Z,19.25
2022-12-11T16:11:27.429Z,17.38
2022-12-11T16:13:54.373Z,16.88
2022-12-11T16:16:22.791Z,19.42
2022-12-11T16:18:50.778Z,17.42
2022-12-11T16:21:21.427Z,16.60
2022-12-11T16:23:49.217Z,19.52
2022-12-11T16:26:16.253Z,19.50
2022-12-11T16:28:44.421Z,16.90
2022-12-11T16:31:13.241Z,21.92
2022-12-11T16:33:40.345Z,19.90
2022-12-11T16:36:18.456Z,17.92
2022-12-11T16:38:53.483Z,17.55
2022-12-11T16:41:21.416Z,17.27
2022-12-11T16:43:48.477Z,20.92
2022-12-11T16:46:22.902Z,21.90
2022-12-11T16:48:50.243Z,21.70
2022-12-11T16:51:18.067Z,19.02
2022-12-11T16:53:46.719Z,20.10
2022-12-11T16:56:14.029Z,18.10
2022-12-11T16:58:41.304Z,18.98
2022-12-11T17:01:13.752Z,17.58
2022-12-11T17:03:42.566Z,17.65
2022-12-11T17:06:12.431Z,18.25
2022-12-11T17:08:41.316Z,19.70
2022-12-11T17:11:11.040Z,20.33
2022-12-11T17:13:38.878Z,20.30
2022-12-11T17:16:13.826Z,19.95
2022-12-11T17:18:41.832Z,18.53
2022-12-11T17:21:11.787Z,20.77
2022-12-11T17:23:39.227Z,19.73
2022-12-11T17:26:16.994Z,19.67
2022-12-11T17:28:44.649Z,18.02
2022-12-11T17:31:14.806Z,19.88
2022-12-11T17:33:41.935Z,24.55
2022-12-11T17:36:09.387Z,22.63
2022-12-11T17:38:36.420Z,21.10
2022-12-11T17:41:08.680Z,23.95
2022-12-11T17:43:36.834Z,19.63
2022-12-11T17:46:04.723Z,19.75
2022-12-11T17:48:32.683Z,16.88
2022-12-11T17:51:06.833Z,15.70
2022-12-11T17:53:34.378Z,21.15
2022-12-11T17:56:03.726Z,21.70
2022-12-11T17:58:31.962Z,22.67
2022-12-11T18:00:59.994Z,19.67
2022-12-11T18:03:28.615Z,19.20
2022-12-11T18:05:56.830Z,19.38
2022-12-11T18:08:27.531Z,17.77
2022-12-11T18:10:54.698Z,17.95
2022-12-11T18:13:22.417Z,17.92
2022-12-11T18:16:04.006Z,18.65
2022-12-11T18:18:31.671Z,18.67
2022-12-11T18:20:58.893Z,20.75
2022-12-11T18:23:26.236Z,28.52
2022-12-11T18:25:53.181Z,24.73
2022-12-11T18:28:20.279Z,22.85
2022-12-11T18:30:47.610Z,19.73
2022-12-11T18:33:16.240Z,21.35
2022-12-11T18:36:16.719Z,22.80
2022-12-11T18:38:45.301Z,21.65
2022-12-11T18:41:13.695Z,17.65
2022-12-11T18:43:43.856Z,18.25
2022-12-11T18:46:16.866Z,21.25
2022-12-11T18:48:45.465Z,19.88
2022-12-11T18:51:17.613Z,18.63
2022-12-11T18:53:45.705Z,25.25
2022-12-11T18:56:15.915Z,21.08
2022-12-11T18:58:43.555Z,24.52
2022-12-11T19:01:27.326Z,23.90
2022-12-11T19:04:04.553Z,22.13
2022-12-11T19:06:35.742Z,22.70
2022-12-11T19:09:05.015Z,26.65
2022-12-11T19:11:33.300Z,23.95
2022-12-11T19:14:00.463Z,29.48
2022-12-11T19:16:31.373Z,25.58
2022-12-11T19:18:58.918Z,25.92
2022-12-11T19:21:26.228Z,27.13
2022-12-11T19:23:56.630Z,28.30
2022-12-11T19:26:25.948Z,24.23
2022-12-11T19:28:54.014Z,22.63
2022-12-11T19:31:23.088Z,18.95
2022-12-11T19:33:50.271Z,22.23
2022-12-11T19:36:20.906Z,26.80
2022-12-11T19:38:48.562Z,22.73
2022-12-11T19:41:27.606Z,24.20
2022-12-11T19:43:56.863Z,24.30
2022-12-11T19:46:27.769Z,25.17
2022-12-11T19:48:58.045Z,22.65
2022-12-11T19:51:38.659Z,23.70
2022-12-11T19:54:11.713Z,26.58
2022-12-11T19:56:38.793Z,21.67
2022-12-11T19:59:08.428Z,21.17
2022-12-11T20:01:41.591Z,21.08
2022-12-11T20:04:13.351Z,20.42
2022-12-11T20:06:43.038Z,23.17
2022-12-11T20:09:25.586Z,22.15
2022-12-11T20:12:06.724Z,20.48
2022-12-11T20:14:33.820Z,22.33
2022-12-11T20:17:12.085Z,25.25
2022-12-11T20:19:41.307Z,22.58
2022-12-11T20:22:09.242Z,21.17
2022-12-11T20:24:36.605Z,25.70
2022-12-11T20:27:04.100Z,23.05
2022-12-11T20:29:31.382Z,22.73
2022-12-11T20:31:59.840Z,21.30
2022-12-11T20:34:28.123Z,22.15
2022-12-11T20:36:56.358Z,22.05
2022-12-11T20:39:23.544Z,18.23
2022-12-11T20:41:51.028Z,21.05
2022-12-11T20:44:22.813Z,27.00
2022-12-11T20:46:53.058Z,22.88
2022-12-11T20:49:22.136Z,22.70
2022-12-11T20:51:50.296Z,25.63
2022-12-11T20:54:17.361Z,28.25
2022-12-11T20:56:44.664Z,24.02
2022-12-11T20:59:11.959Z,24.15
2022-12-11T21:01:44.382Z,24.80
2022-12-11T21:04:12.012Z,24.20
2022-12-11T21:06:46.470Z,23.20
2022-12-11T21:09:17.835Z,25.50
2022-12-11T21:11:45.131Z,23.08
2022-12-11T21:14:13.192Z,24.33
2022-12-11T21:16:40.665Z,20.70
2022-12-11T21:19:13.665Z,21.73
2022-12-11T21:21:45.320Z,22.20
2022-12-11T21:24:27.134Z,22.85
2022-12-11T21:26:58.377Z,22.08
2022-12-11T21:29:27.756Z,23.77
2022-12-11T21:31:54.810Z,22.00
2022-12-11T21:34:26.016Z,24.85
2022-12-11T21:36:56.919Z,20.25
2022-12-11T21:39:26.126Z,25.65
2022-12-11T21:41:54.745Z,26.05
2022-12-11T21:47:09.471Z,26.17
2022-12-11T21:49:37.753Z,22.20
2022-12-11T21:52:05.346Z,23.15
2022-12-11T21:54:37.710Z,22.48
2022-12-11T21:57:05.407Z,23.67
2022-12-11T21:59:34.240Z,23.23
2022-12-11T22:02:01.485Z,22.15
2022-12-11T22:04:34.484Z,21.42
2022-12-11T22:07:03.368Z,23.65
2022-12-11T22:09:30.479Z,23.75
2022-12-11T22:11:58.720Z,23.55
2022-12-11T22:14:26.128Z,20.88
2022-12-11T22:16:53.458Z,25.92
2022-12-11T22:19:21.262Z,25.15
2022-12-11T22:21:48.260Z,25.25
2022-12-11T22:24:16.450Z,21.23
2022-12-11T22:26:43.878Z,22.50
2022-12-11T22:29:12.333Z,23.98
2022-12-11T22:31:39.640Z,23.45
2022-12-11T22:34:06.633Z,20.88
2022-12-11T22:36:33.556Z,23.30
2022-12-11T22:39:01.037Z,21.95
2022-12-11T22:41:31.722Z,24.08
2022-12-11T22:43:59.879Z,23.73
2022-12-11T22:46:31.272Z,22.52
2022-12-11T22:48:59.248Z,22.48
2022-12-11T22:51:27.532Z,24.23
2022-12-11T22:54:03.784Z,20.80
2022-12-11T22:56:30.853Z,24.23
2022-12-11T22:58:58.179Z,20.13
2022-12-11T23:01:26.806Z,21.25
2022-12-11T23:03:54.186Z,20.40
2022-12-11T23:06:23.697Z,24.17
2022-12-11T23:08:51.680Z,23.75
2022-12-11T23:11:27.662Z,23.00
2022-12-11T23:13:55.578Z,25.65
2022-12-11T23:16:24.647Z,22.23
2022-12-11T23:18:51.795Z,21.15
2022-12-11T23:21:22.571Z,20.60
2022-12-11T23:23:49.877Z,21.63
2022-12-11T23:26:20.761Z,22.25
2022-12-11T23:28:50.024Z,23.95
2022-12-11T23:31:17.940Z,26.20
2022-12-11T23:33:45.237Z,21.58
2022-12-11T23:36:12.662Z,19.90
2022-12-11T23:38:40.940Z,19.02
2022-12-11T23:41:09.748Z,22.30
2022-12-11T23:43:37.695Z,22.98
2022-12-11T23:46:08.731Z,20.27
2022-12-11T23:48:35.831Z,22.70
2022-12-11T23:51:04.290Z,23.50
2022-12-11T23:53:31.299Z,22.75
2022-12-11T23:56:04.500Z,24.85
2022-12-11T23:58:31.989Z,21.70
